createdAt,value
2018-02-14T00:02:10.754Z,8.87
2018-02-14T00:04:38.855Z,7.60
2018-02-14T00:07:06.962Z,8.47
2018-02-14T00:09:35.073Z,7.40
2018-02-14T00:12:03.194Z,7.40
2018-02-14T00:14:31.301Z,7.10
2018-02-14T00:16:59.420Z,8.47
2018-02-14T00:19:27.526Z,7.87
2018-02-14T00:21:55.619Z,6.23
2018-02-14T00:24:23.735Z,7.90
2018-02-14T00:26:51.874Z,8.53
2018-02-14T00:29:19.984Z,6.47
2018-02-14T00:31:48.096Z,6.77
2018-02-14T00:34:16.187Z,7.37
2018-02-14T00:36:44.294Z,6.63
2018-02-14T00:39:12.401Z,8.37
2018-02-14T00:41:40.613Z,7.73
2018-02-14T00:44:08.700Z,7.30
2018-02-14T00:46:36.804Z,8.07
2018-02-14T00:49:04.907Z,8.23
2018-02-14T00:51:33.011Z,11.13
2018-02-14T00:54:01.137Z,7.90
2018-02-14T00:56:29.235Z,8.77
2018-02-14T00:58:57.343Z,9.63
2018-02-14T01:01:25.452Z,7.17
2018-02-14T01:03:53.573Z,5.97
2018-02-14T01:06:21.685Z,7.37
2018-02-14T01:08:49.779Z,9.73
2018-02-14T01:11:17.901Z,8.63
2018-02-14T01:13:45.994Z,9.87
2018-02-14T01:16:14.364Z,6.63
2018-02-14T01:18:48.324Z,9.23
2018-02-14T01:21:16.451Z,10.83
2018-02-14T01:23:44.555Z,7.77
2018-02-14T01:26:12.656Z,8.90
2018-02-14T01:28:40.759Z,11.30
2018-02-14T01:31:08.870Z,9.70
2018-02-14T01:33:37.033Z,7.03
2018-02-14T01:36:05.130Z,8.70
2018-02-14T01:38:33.243Z,10.17
2018-02-14T01:41:01.362Z,8.40
2018-02-14T01:43:29.472Z,10.33
2018-02-14T01:45:57.570Z,12.43
2018-02-14T01:48:25.705Z,9.73
2018-02-14T01:50:53.807Z,11.43
2018-02-14T01:53:21.929Z,7.70
2018-02-14T01:55:50.014Z,9.03
2018-02-14T01:58:18.120Z,9.30
2018-02-14T02:00:46.238Z,10.27
2018-02-14T02:03:14.361Z,9.73
2018-02-14T02:05:42.455Z,9.30
2018-02-14T02:08:10.735Z,12.07
2018-02-14T02:10:38.838Z,13.23
2018-02-14T02:13:06.931Z,7.77
2018-02-14T02:15:35.052Z,13.30
2018-02-14T02:18:03.150Z,10.07
2018-02-14T02:20:35.171Z,10.67
2018-02-14T02:23:03.242Z,10.27
2018-02-14T02:25:31.362Z,10.27
2018-02-14T02:27:59.447Z,9.73
2018-02-14T02:30:27.586Z,10.97
2018-02-14T02:32:55.701Z,8.87
2018-02-14T02:35:23.776Z,9.30
2018-02-14T02:37:51.900Z,10.63
2018-02-14T02:40:32.008Z,9.27
2018-02-14T02:43:00.121Z,9.63
2018-02-14T02:45:28.281Z,8.57
2018-02-14T02:47:56.393Z,7.97
2018-02-14T02:50:24.488Z,10.43
2018-02-14T02:52:52.596Z,10.20
2018-02-14T02:55:20.703Z,10.73
2018-02-14T02:57:48.814Z,9.10
2018-02-14T03:00:16.937Z,11.53
2018-02-14T03:02:45.105Z,14.07
2018-02-14T03:05:13.221Z,9.47
2018-02-14T03:07:41.345Z,11.03
2018-02-14T03:10:09.451Z,12.50
2018-02-14T03:12:40.806Z,11.03
2018-02-14T03:15:08.982Z,11.20
2018-02-14T03:17:37.099Z,12.20
2018-02-14T03:20:05.230Z,14.97
2018-02-14T03:22:33.335Z,11.83
2018-02-14T03:25:01.435Z,9.43
2018-02-14T03:27:29.550Z,9.60
2018-02-14T03:29:57.671Z,11.73
2018-02-14T03:32:25.775Z,11.20
2018-02-14T03:34:53.875Z,10.77
2018-02-14T03:37:21.988Z,11.37
2018-02-14T03:39:50.104Z,12.53
2018-02-14T03:42:18.231Z,11.60
2018-02-14T03:44:47.242Z,10.57
2018-02-14T03:47:15.336Z,12.60
2018-02-14T03:49:43.450Z,15.13
2018-02-14T03:52:11.551Z,14.67
2018-02-14T03:54:39.716Z,10.57
2018-02-14T03:57:07.844Z,10.17
2018-02-14T03:59:35.983Z,14.87
2018-02-14T04:02:04.092Z,10.40
2018-02-14T04:04:32.198Z,11.40
2018-02-14T04:07:00.317Z,11.90
2018-02-14T04:09:28.448Z,11.93
2018-02-14T04:11:56.551Z,12.03
2018-02-14T04:14:24.647Z,11.73
2018-02-14T04:16:52.762Z,11.53
2018-02-14T04:19:20.894Z,12.40
2018-02-14T04:21:49.019Z,14.63
2018-02-14T04:24:17.125Z,13.30
2018-02-14T04:26:45.258Z,11.27
2018-02-14T04:29:13.358Z,11.73
2018-02-14T04:31:41.591Z,12.77
2018-02-14T04:34:09.850Z,14.90
2018-02-14T04:36:37.963Z,14.73
2018-02-14T04:39:06.089Z,11.27
2018-02-14T04:41:34.210Z,10.93
2018-02-14T04:44:02.520Z,13.30
2018-02-14T04:46:30.704Z,15.43
2018-02-14T04:48:58.816Z,13.13
2018-02-14T04:51:26.953Z,14.40
2018-02-14T04:53:55.166Z,11.80
2018-02-14T04:56:23.271Z,12.00
2018-02-14T04:58:51.389Z,14.43
2018-02-14T05:01:19.498Z,14.50
2018-02-14T05:03:47.593Z,12.73
2018-02-14T05:06:15.702Z,12.73
2018-02-14T05:08:43.802Z,11.73
2018-02-14T05:11:11.910Z,11.77
2018-02-14T05:13:40.013Z,13.97
2018-02-14T05:16:08.142Z,11.70
2018-02-14T05:18:36.234Z,12.60
2018-02-14T05:21:04.345Z,9.77
2018-02-14T05:23:32.463Z,12.63
2018-02-14T05:26:00.581Z,12.47
2018-02-14T05:28:28.708Z,12.80
2018-02-14T05:30:56.806Z,15.97
2018-02-14T05:33:24.919Z,22.00
2018-02-14T05:35:53.033Z,13.63
2018-02-14T05:38:21.143Z,14.17
2018-02-14T05:40:49.262Z,13.17
2018-02-14T05:43:17.373Z,12.17
2018-02-14T05:45:45.480Z,15.07
2018-02-14T05:48:13.594Z,17.07
2018-02-14T05:50:41.704Z,12.10
2018-02-14T05:53:09.820Z,14.60
2018-02-14T05:55:37.945Z,12.70
2018-02-14T05:58:06.043Z,16.37
2018-02-14T06:00:34.166Z,14.97
2018-02-14T06:03:02.264Z,11.27
2018-02-14T06:05:30.397Z,14.10
2018-02-14T06:07:58.507Z,13.93
2018-02-14T06:10:26.620Z,12.87
2018-02-14T06:12:54.742Z,14.83
2018-02-14T06:15:22.839Z,15.17
2018-02-14T06:17:50.966Z,11.13
2018-02-14T06:20:22.670Z,15.03
2018-02-14T06:22:50.771Z,12.60
2018-02-14T06:25:18.871Z,15.23
2018-02-14T06:27:46.996Z,22.83
2018-02-14T06:30:15.117Z,15.93
2018-02-14T06:32:43.234Z,15.37
2018-02-14T06:35:11.334Z,13.37
2018-02-14T06:37:42.583Z,14.83
2018-02-14T06:40:10.703Z,15.63
2018-02-14T06:42:38.807Z,18.23
2018-02-14T06:45:06.915Z,15.37
2018-02-14T06:47:35.032Z,17.50
2018-02-14T06:50:03.161Z,14.67
2018-02-14T06:52:31.271Z,16.93
2018-02-14T06:54:59.408Z,17.57
2018-02-14T06:57:27.533Z,16.23
2018-02-14T06:59:55.631Z,19.00
2018-02-14T07:02:26.998Z,14.83
2018-02-14T07:04:55.112Z,20.47
2018-02-14T07:07:23.238Z,17.90
2018-02-14T07:09:51.382Z,19.70
2018-02-14T07:12:21.417Z,16.63
2018-02-14T07:14:49.517Z,19.20
2018-02-14T07:17:17.839Z,17.43
2018-02-14T07:19:45.968Z,21.97
2018-02-14T07:22:14.096Z,22.73
2018-02-14T07:24:42.344Z,15.90
2018-02-14T07:27:10.446Z,18.20
2018-02-14T07:29:38.582Z,18.70
2018-02-14T07:32:06.875Z,22.03
2018-02-14T07:34:35.049Z,20.73
2018-02-14T07:37:03.157Z,21.77
2018-02-14T07:39:31.312Z,15.73
2018-02-14T07:41:59.440Z,18.17
2018-02-14T07:44:27.560Z,21.20
2018-02-14T07:46:55.693Z,22.87
2018-02-14T07:49:23.923Z,19.57
2018-02-14T07:51:52.065Z,22.77
2018-02-14T07:54:20.186Z,20.83
2018-02-14T07:56:48.299Z,23.93
2018-02-14T07:59:16.410Z,23.60
2018-02-14T08:01:44.530Z,18.67
2018-02-14T08:04:12.649Z,19.77
2018-02-14T08:06:40.751Z,20.80
2018-02-14T08:09:08.880Z,25.17
2018-02-14T08:11:37.109Z,22.87
2018-02-14T08:14:05.238Z,27.20
2018-02-14T08:16:33.357Z,19.33
2018-02-14T08:19:01.481Z,15.67
2018-02-14T08:21:29.613Z,18.73
2018-02-14T08:23:57.726Z,26.87
2018-02-14T08:26:25.851Z,19.87
2018-02-14T08:28:53.965Z,19.00
2018-02-14T08:31:22.072Z,19.90
2018-02-14T08:33:50.196Z,16.67
2018-02-14T08:36:18.299Z,18.37
2018-02-14T08:38:46.437Z,22.13
2018-02-14T08:41:14.546Z,18.00
2018-02-14T08:43:42.676Z,20.87
2018-02-14T08:46:11.677Z,20.83
2018-02-14T08:48:39.795Z,26.43
2018-02-14T08:51:07.928Z,19.63
2018-02-14T08:53:36.033Z,23.87
2018-02-14T08:56:04.164Z,22.33
2018-02-14T08:58:32.294Z,20.60
2018-02-14T09:01:00.419Z,18.57
2018-02-14T09:03:28.531Z,21.53
2018-02-14T09:05:56.638Z,22.67
2018-02-14T09:08:24.757Z,24.37
2018-02-14T09:10:52.888Z,19.67
2018-02-14T09:13:21.021Z,19.23
2018-02-14T09:15:49.138Z,20.20
2018-02-14T09:18:17.352Z,27.63
2018-02-14T09:20:45.476Z,22.67
2018-02-14T09:23:13.583Z,19.80
2018-02-14T09:25:41.699Z,19.60
2018-02-14T09:28:09.835Z,23.33
2018-02-14T09:30:37.946Z,22.03
2018-02-14T09:33:06.062Z,23.07
2018-02-14T09:35:34.184Z,18.83
2018-02-14T09:38:02.282Z,20.40
2018-02-14T09:40:30.407Z,18.87
2018-02-14T09:42:58.511Z,26.37
2018-02-14T09:45:26.640Z,20.87
2018-02-14T09:47:54.763Z,22.73
2018-02-14T09:50:22.885Z,17.63
2018-02-14T09:52:50.994Z,22.27
2018-02-14T09:55:19.107Z,21.83
2018-02-14T09:57:47.621Z,20.70
2018-02-14T10:00:15.752Z,23.67
2018-02-14T10:02:43.860Z,20.10
2018-02-14T10:05:11.966Z,21.17
2018-02-14T10:07:40.093Z,16.57
2018-02-14T10:10:08.221Z,20.73
2018-02-14T10:12:36.326Z,20.37
2018-02-14T10:15:04.448Z,19.70
2018-02-14T10:17:32.559Z,24.93
2018-02-14T10:20:00.684Z,19.97
2018-02-14T10:22:29.010Z,19.20
2018-02-14T10:24:58.138Z,22.43
2018-02-14T10:27:26.254Z,18.40
2018-02-14T10:29:54.375Z,17.80
2018-02-14T10:32:22.489Z,17.13
2018-02-14T10:34:50.595Z,15.93
2018-02-14T10:37:18.719Z,15.40
2018-02-14T10:39:46.831Z,18.53
2018-02-14T10:42:14.961Z,16.03
2018-02-14T10:44:43.069Z,16.80
2018-02-14T10:47:11.197Z,20.87
2018-02-14T10:49:39.483Z,19.60
2018-02-14T10:52:07.614Z,19.40
2018-02-14T10:54:35.763Z,16.70
2018-02-14T10:57:03.881Z,16.37
2018-02-14T10:59:31.979Z,14.90
2018-02-14T11:02:05.623Z,14.17
2018-02-14T11:04:33.784Z,17.80
2018-02-14T11:07:07.496Z,20.33
2018-02-14T11:09:35.639Z,19.33
2018-02-14T11:12:03.746Z,11.67
2018-02-14T11:14:31.874Z,15.07
2018-02-14T11:16:59.976Z,16.93
2018-02-14T11:19:28.112Z,12.33
2018-02-14T11:21:56.223Z,19.20
2018-02-14T11:24:24.464Z,17.63
2018-02-14T11:26:52.551Z,13.87
2018-02-14T11:29:20.657Z,18.23
2018-02-14T11:31:48.798Z,12.83
2018-02-14T11:34:16.886Z,14.00
2018-02-14T11:36:45.021Z,11.33
2018-02-14T11:39:13.127Z,11.77
2018-02-14T11:41:41.292Z,12.60
2018-02-14T11:44:09.485Z,14.73
2018-02-14T11:46:37.626Z,11.97
2018-02-14T11:49:05.777Z,11.07
2018-02-14T11:51:33.881Z,10.90
2018-02-14T11:54:01.997Z,14.90
2018-02-14T11:56:30.145Z,12.70
2018-02-14T11:58:58.270Z,14.17
2018-02-14T12:01:26.366Z,11.70
2018-02-14T12:03:54.492Z,11.30
2018-02-14T12:06:22.605Z,17.23
2018-02-14T12:08:50.699Z,20.57
2018-02-14T12:11:18.835Z,12.00
2018-02-14T12:13:46.945Z,11.83
2018-02-14T12:16:15.079Z,11.77
2018-02-14T12:18:43.196Z,11.37
2018-02-14T12:21:11.328Z,11.33
2018-02-14T12:23:39.414Z,9.73
2018-02-14T12:26:07.557Z,15.03
2018-02-14T12:28:35.669Z,11.80
2018-02-14T12:31:03.797Z,11.50
2018-02-14T12:33:31.917Z,7.97
2018-02-14T12:36:00.028Z,14.20
2018-02-14T12:38:28.160Z,11.37
2018-02-14T12:40:56.278Z,12.67
2018-02-14T12:43:24.388Z,11.27
2018-02-14T12:45:52.533Z,8.63
2018-02-14T12:48:20.629Z,14.27
2018-02-14T12:50:48.751Z,9.43
2018-02-14T12:53:16.861Z,9.13
2018-02-14T12:55:44.976Z,8.30
2018-02-14T12:58:13.086Z,8.97
2018-02-14T13:00:41.211Z,9.87
2018-02-14T13:03:09.286Z,9.23
2018-02-14T13:05:37.407Z,8.00
2018-02-14T13:08:05.501Z,8.33
2018-02-14T13:10:33.625Z,11.50
2018-02-14T13:13:01.734Z,11.03
2018-02-14T13:15:32.802Z,10.53
2018-02-14T13:18:00.903Z,12.80
2018-02-14T13:20:29.016Z,9.77
2018-02-14T13:22:57.112Z,8.83
2018-02-14T13:25:25.223Z,8.27
2018-02-14T13:27:53.347Z,15.00
2018-02-14T13:30:21.461Z,13.63
2018-02-14T13:32:49.615Z,13.20
2018-02-14T13:35:17.703Z,8.37
2018-02-14T13:37:45.830Z,10.40
2018-02-14T13:40:13.944Z,9.03
2018-02-14T13:42:42.057Z,9.80
2018-02-14T13:45:10.167Z,10.17
2018-02-14T13:47:38.286Z,10.53
2018-02-14T13:50:06.492Z,8.27
2018-02-14T13:52:34.516Z,16.07
2018-02-14T13:55:02.651Z,8.27
2018-02-14T13:57:30.762Z,10.20
2018-02-14T13:59:58.904Z,12.67
2018-02-14T14:02:27.026Z,7.83
2018-02-14T14:04:55.149Z,12.77
2018-02-14T14:07:23.303Z,9.77
2018-02-14T14:09:51.368Z,12.63
2018-02-14T14:12:19.476Z,12.23
2018-02-14T14:14:47.609Z,9.47
2018-02-14T14:17:15.718Z,11.00
2018-02-14T14:19:43.833Z,12.47
2018-02-14T14:22:11.966Z,8.50
2018-02-14T14:24:40.080Z,9.33
2018-02-14T14:27:08.235Z,7.53
2018-02-14T14:29:36.348Z,9.23
2018-02-14T14:32:04.451Z,12.97
2018-02-14T14:34:32.581Z,10.60
2018-02-14T14:37:00.685Z,9.00
2018-02-14T14:39:28.812Z,11.33
2018-02-14T14:41:56.918Z,10.30
2018-02-14T14:44:25.057Z,9.10
2018-02-14T14:46:53.167Z,8.93
2018-02-14T14:49:21.286Z,8.13
2018-02-14T14:51:49.427Z,9.37
2018-02-14T14:54:17.550Z,10.13
2018-02-14T14:56:45.648Z,10.67
2018-02-14T14:59:13.768Z,10.63
2018-02-14T15:01:42.029Z,10.20
2018-02-14T15:04:10.131Z,12.07
2018-02-14T15:06:38.273Z,12.80
2018-02-14T15:09:06.367Z,9.23
2018-02-14T15:11:34.505Z,11.13
2018-02-14T15:14:02.625Z,10.03
2018-02-14T15:16:30.757Z,11.47
2018-02-14T15:18:58.892Z,10.40
2018-02-14T15:21:27.005Z,13.70
2018-02-14T15:23:55.157Z,11.53
2018-02-14T15:26:23.283Z,9.53
2018-02-14T15:28:54.699Z,17.13
2018-02-14T15:31:22.802Z,13.40
2018-02-14T15:33:50.927Z,11.70
2018-02-14T15:36:19.046Z,14.80
2018-02-14T15:38:47.170Z,11.43
2018-02-14T15:41:15.293Z,14.23
2018-02-14T15:43:43.528Z,9.70
2018-02-14T15:46:11.656Z,12.43
2018-02-14T15:48:42.773Z,11.67
2018-02-14T15:51:10.902Z,17.60
2018-02-14T15:53:38.994Z,16.87
2018-02-14T15:56:07.118Z,10.33
2018-02-14T15:58:35.276Z,11.93
2018-02-14T16:01:03.409Z,12.17
2018-02-14T16:03:31.510Z,11.53
2018-02-14T16:05:59.657Z,17.67
2018-02-14T16:08:27.755Z,9.80
2018-02-14T16:10:55.868Z,10.50
2018-02-14T16:13:23.970Z,12.37
2018-02-14T16:15:52.096Z,10.07
2018-02-14T16:18:20.194Z,11.10
2018-02-14T16:20:48.336Z,14.87
2018-02-14T16:23:19.980Z,13.40
2018-02-14T16:25:48.979Z,11.87
2018-02-14T16:28:17.103Z,13.97
2018-02-14T16:30:45.199Z,9.97
2018-02-14T16:33:13.339Z,7.40
2018-02-14T16:35:41.434Z,9.53
2018-02-14T16:38:09.570Z,9.13
2018-02-14T16:40:37.729Z,13.63
2018-02-14T16:43:05.849Z,8.83
2018-02-14T16:45:33.964Z,8.93
2018-02-14T16:48:05.331Z,7.70
2018-02-14T16:50:33.458Z,10.33
2018-02-14T16:53:01.572Z,10.30
2018-02-14T16:55:29.682Z,8.57
2018-02-14T16:57:57.789Z,8.07
2018-02-14T17:00:25.900Z,8.33
2018-02-14T17:02:53.999Z,9.90
2018-02-14T17:05:22.204Z,14.20
2018-02-14T17:07:50.341Z,15.93
2018-02-14T17:10:18.461Z,12.07
2018-02-14T17:12:46.554Z,9.00
2018-02-14T17:15:14.655Z,12.10
2018-02-14T17:17:42.777Z,9.90
2018-02-14T17:20:10.880Z,9.63
2018-02-14T17:22:38.997Z,10.87
2018-02-14T17:25:07.103Z,8.60
2018-02-14T17:27:35.211Z,9.07
2018-02-14T17:30:03.346Z,10.87
2018-02-14T17:32:31.415Z,7.07
2018-02-14T17:34:59.527Z,8.63
2018-02-14T17:37:27.630Z,8.70
2018-02-14T17:39:55.757Z,8.07
2018-02-14T17:42:23.883Z,6.90
2018-02-14T17:44:51.992Z,10.53
2018-02-14T17:47:20.109Z,8.57
2018-02-14T17:49:48.211Z,9.30
2018-02-14T17:52:16.315Z,10.53
2018-02-14T17:54:44.428Z,8.43
2018-02-14T17:57:12.544Z,8.50
2018-02-14T17:59:40.675Z,9.67
2018-02-14T18:02:08.787Z,8.73
2018-02-14T18:04:36.898Z,8.60
2018-02-14T18:07:05.013Z,7.60
2018-02-14T18:09:33.160Z,8.43
2018-02-14T18:12:01.335Z,8.63
2018-02-14T18:14:29.454Z,10.37
2018-02-14T18:16:57.572Z,10.57
2018-02-14T18:19:25.688Z,9.00
2018-02-14T18:21:53.794Z,10.37
2018-02-14T18:24:21.913Z,9.87
2018-02-14T18:26:50.015Z,12.80
2018-02-14T18:29:18.143Z,11.67
2018-02-14T18:31:46.265Z,12.13
2018-02-14T18:34:14.388Z,11.53
2018-02-14T18:36:42.543Z,10.33
2018-02-14T18:39:10.643Z,8.83
2018-02-14T18:41:38.772Z,12.93
2018-02-14T18:44:07.013Z,9.87
2018-02-14T18:46:35.264Z,11.93
2018-02-14T18:49:03.420Z,11.60
2018-02-14T18:51:31.604Z,9.97
2018-02-14T18:53:59.703Z,9.53
2018-02-14T18:56:27.814Z,9.73
2018-02-14T18:58:55.929Z,12.47
2018-02-14T19:01:24.052Z,14.27
2018-02-14T19:03:52.200Z,11.53
2018-02-14T19:06:20.413Z,11.63
2018-02-14T19:08:48.549Z,12.47
2018-02-14T19:11:16.660Z,17.83
2018-02-14T19:13:44.817Z,15.97
2018-02-14T19:16:12.929Z,14.50
2018-02-14T19:18:41.075Z,13.63
2018-02-14T19:21:09.200Z,17.40
2018-02-14T19:23:37.305Z,13.50
2018-02-14T19:26:05.439Z,11.30
2018-02-14T19:28:33.549Z,14.30
2018-02-14T19:31:04.660Z,14.53
2018-02-14T19:33:32.877Z,13.23
2018-02-14T19:36:00.984Z,13.77
2018-02-14T19:38:29.095Z,17.10
2018-02-14T19:40:57.213Z,15.63
2018-02-14T19:43:25.329Z,12.17
2018-02-14T19:45:53.446Z,14.97
2018-02-14T19:48:21.558Z,13.03
2018-02-14T19:50:49.672Z,14.97
2018-02-14T19:53:17.801Z,14.63
2018-02-14T19:55:45.909Z,15.30
2018-02-14T19:58:14.019Z,18.70
2018-02-14T20:00:42.139Z,14.13
2018-02-14T20:03:10.265Z,13.63
2018-02-14T20:05:38.378Z,16.63
2018-02-14T20:08:06.483Z,17.70
2018-02-14T20:10:34.601Z,14.30
2018-02-14T20:13:02.713Z,15.50
2018-02-14T20:15:30.849Z,13.27
2018-02-14T20:17:58.966Z,14.97
2018-02-14T20:20:27.106Z,16.53
2018-02-14T20:22:55.211Z,12.83
2018-02-14T20:25:23.331Z,15.03
2018-02-14T20:27:51.436Z,14.03
2018-02-14T20:30:19.535Z,14.97
2018-02-14T20:32:47.666Z,17.37
2018-02-14T20:35:15.779Z,15.43
2018-02-14T20:37:47.019Z,17.83
2018-02-14T20:40:15.357Z,17.53
2018-02-14T20:42:43.462Z,15.47
2018-02-14T20:45:11.635Z,15.20
2018-02-14T20:47:39.769Z,14.53
2018-02-14T20:50:07.878Z,14.53
2018-02-14T20:52:36.045Z,16.97
2018-02-14T20:55:04.168Z,18.27
2018-02-14T20:57:32.272Z,14.37
2018-02-14T21:00:00.393Z,15.50
2018-02-14T21:02:28.515Z,16.80
2018-02-14T21:04:56.612Z,15.40
2018-02-14T21:07:24.749Z,23.63
2018-02-14T21:09:52.861Z,16.60
2018-02-14T21:12:20.971Z,18.90
2018-02-14T21:14:49.088Z,18.07
2018-02-14T21:17:17.206Z,16.73
2018-02-14T21:19:45.315Z,20.83
2018-02-14T21:22:13.463Z,19.60
2018-02-14T21:24:41.595Z,17.57
2018-02-14T21:27:09.702Z,20.57
2018-02-14T21:29:37.834Z,18.00
2018-02-14T21:32:06.092Z,16.83
2018-02-14T21:34:34.216Z,18.33
2018-02-14T21:37:02.354Z,19.73
2018-02-14T21:39:30.453Z,16.27
2018-02-14T21:41:58.565Z,19.33
2018-02-14T21:44:26.714Z,19.40
2018-02-14T21:46:54.832Z,17.37
2018-02-14T21:49:22.952Z,18.33
2018-02-14T21:51:51.079Z,18.73
2018-02-14T21:54:19.207Z,20.67
2018-02-14T21:56:47.330Z,19.97
2018-02-14T21:59:15.427Z,18.97
2018-02-14T22:01:43.788Z,18.93
2018-02-14T22:04:15.123Z,19.73
2018-02-14T22:06:43.264Z,22.57
2018-02-14T22:09:11.367Z,19.67
2018-02-14T22:11:39.562Z,17.53
2018-02-14T22:14:07.658Z,22.37
2018-02-14T22:16:35.778Z,21.70
2018-02-14T22:19:03.890Z,23.03
2018-02-14T22:21:32.014Z,21.17
2018-02-14T22:24:00.142Z,22.63
2018-02-14T22:26:28.259Z,20.80
2018-02-14T22:28:56.398Z,19.53
2018-02-14T22:31:24.511Z,21.87
2018-02-14T22:33:52.625Z,21.37
2018-02-14T22:36:20.754Z,20.33
2018-02-14T22:38:48.854Z,25.27
2018-02-14T22:41:16.989Z,22.37
2018-02-14T22:43:45.099Z,19.40
2018-02-14T22:46:13.233Z,22.43
2018-02-14T22:48:41.352Z,21.93
2018-02-14T22:51:09.448Z,20.67
2018-02-14T22:53:37.606Z,21.17
2018-02-14T22:56:05.712Z,24.47
2018-02-14T22:58:33.823Z,23.73
2018-02-14T23:01:01.935Z,25.00
2018-02-14T23:03:30.053Z,22.37
2018-02-14T23:05:58.159Z,26.37
2018-02-14T23:08:26.308Z,22.13
2018-02-14T23:10:54.420Z,21.40
2018-02-14T23:13:22.522Z,22.20
2018-02-14T23:15:50.661Z,21.93
2018-02-14T23:18:18.789Z,24.20
2018-02-14T23:20:47.180Z,25.77
2018-02-14T23:23:15.290Z,25.07
2018-02-14T23:25:43.403Z,22.50
2018-02-14T23:28:11.530Z,24.87
2018-02-14T23:30:39.653Z,24.20
2018-02-14T23:33:07.773Z,21.90
2018-02-14T23:35:35.884Z,23.63
2018-02-14T23:38:04.019Z,23.50
2018-02-14T23:40:32.140Z,22.47
2018-02-14T23:43:00.346Z,22.47
2018-02-14T23:45:28.474Z,22.27
2018-02-14T23:47:56.609Z,25.13
2018-02-14T23:50:24.791Z,24.30
2018-02-14T23:52:52.887Z,22.47
2018-02-14T23:55:21.004Z,23.73
2018-02-14T23:57:49.110Z,23.43
